Dougherty, Texas
Current Conditions -  °F | °C
As of 11:15 PM on Monday 20 Oct 2014 (Local Time) from KPVW Reporting Station
Clear Clear  
Wind Chill: 56°   Ceiling: Unl
Heat Index: 56°   Visibility: 10mi
Dew Point: 52°   Wind: 5mph
Humidity: 87%   Direction: 200°SSW
Pressure: 30.11"   Gusts: NA
Location:  33.94°N, 101.09°W
Report Text: KPVW 210415Z AUTO 20004KT 10SM CLR 14/11 A3011 RMK AO2 T01350113 TSNO
Loading
Personal Weather Stations






























Interactive Weather Map
Tropical Storm Tracking
New forecast layout! Learn more

10-Day Weather Forecast

Advertisements
Track Severe Weather on mobile